sensor_id;sensor_type;location;lat;lon;timestamp;temperature;humidity
17994;DHT22;9122;48.406;9.984;2023-07-24T09:46:17;22.30;92.60
17994;DHT22;9122;48.406;9.984;2023-07-24T09:49:01;21.90;92.50
17994;DHT22;9122;48.406;9.984;2023-07-24T12:36:33;21.90;93.40
17994;DHT22;9122;48.406;9.984;2023-07-24T12:39:17;21.90;94.10
17994;DHT22;9122;48.406;9.984;2023-07-24T12:42:02;21.80;94.30
17994;DHT22;9122;48.406;9.984;2023-07-24T12:44:46;21.80;94.50
17994;DHT22;9122;48.406;9.984;2023-07-24T12:47:32;21.80;94.60
17994;DHT22;9122;48.406;9.984;2023-07-24T12:50:16;21.80;94.50
17994;DHT22;9122;48.406;9.984;2023-07-24T12:53:01;21.80;94.70
17994;DHT22;9122;48.406;9.984;2023-07-24T12:55:46;21.80;94.60
17994;DHT22;9122;48.406;9.984;2023-07-24T12:58:30;21.80;94.50
17994;DHT22;9122;48.406;9.984;2023-07-24T13:01:14;21.80;94.60
17994;DHT22;9122;48.406;9.984;2023-07-24T13:03:58;21.70;94.80
17994;DHT22;9122;48.406;9.984;2023-07-24T13:06:43;21.80;95.10
17994;DHT22;9122;48.406;9.984;2023-07-24T13:09:28;21.70;95.20
17994;DHT22;9122;48.406;9.984;2023-07-24T13:12:13;21.70;95.30
17994;DHT22;9122;48.406;9.984;2023-07-24T13:14:57;21.80;95.60
17994;DHT22;9122;48.406;9.984;2023-07-24T13:17:41;21.80;95.90
17994;DHT22;9122;48.406;9.984;2023-07-24T13:20:25;21.80;96.00
17994;DHT22;9122;48.406;9.984;2023-07-24T13:23:10;21.80;95.90
17994;DHT22;9122;48.406;9.984;2023-07-24T13:25:55;21.80;95.90
17994;DHT22;9122;48.406;9.984;2023-07-24T13:28:39;21.80;95.40
17994;DHT22;9122;48.406;9.984;2023-07-24T13:31:24;21.80;95.30
17994;DHT22;9122;48.406;9.984;2023-07-24T13:34:08;21.80;95.10
17994;DHT22;9122;48.406;9.984;2023-07-24T13:36:53;21.80;94.90
17994;DHT22;9122;48.406;9.984;2023-07-24T13:39:37;21.80;95.30
17994;DHT22;9122;48.406;9.984;2023-07-24T13:42:22;21.80;95.60
17994;DHT22;9122;48.406;9.984;2023-07-24T13:45:06;21.80;96.10
17994;DHT22;9122;48.406;9.984;2023-07-24T13:47:51;21.80;96.20
17994;DHT22;9122;48.406;9.984;2023-07-24T13:50:36;21.80;95.70
17994;DHT22;9122;48.406;9.984;2023-07-24T13:53:20;21.80;95.20
17994;DHT22;9122;48.406;9.984;2023-07-24T13:56:05;21.80;95.00
17994;DHT22;9122;48.406;9.984;2023-07-24T13:58:50;21.80;95.10
17994;DHT22;9122;48.406;9.984;2023-07-24T14:01:35;21.80;95.00
17994;DHT22;9122;48.406;9.984;2023-07-24T14:04:19;21.80;95.00
17994;DHT22;9122;48.406;9.984;2023-07-24T14:07:03;21.90;95.20
17994;DHT22;9122;48.406;9.984;2023-07-24T14:09:47;21.90;95.00
17994;DHT22;9122;48.406;9.984;2023-07-24T14:12:32;21.80;94.60
17994;DHT22;9122;48.406;9.984;2023-07-24T14:15:16;21.80;94.60
17994;DHT22;9122;48.406;9.984;2023-07-24T14:18:00;21.80;94.70
17994;DHT22;9122;48.406;9.984;2023-07-24T14:20:44;21.80;94.90
17994;DHT22;9122;48.406;9.984;2023-07-24T14:23:29;21.70;95.00
17994;DHT22;9122;48.406;9.984;2023-07-24T14:26:14;21.70;94.80
17994;DHT22;9122;48.406;9.984;2023-07-24T14:28:58;21.70;94.80
17994;DHT22;9122;48.406;9.984;2023-07-24T14:31:42;21.70;94.70
17994;DHT22;9122;48.406;9.984;2023-07-24T14:34:27;21.70;94.70
17994;DHT22;9122;48.406;9.984;2023-07-24T14:37:11;21.80;94.70
17994;DHT22;9122;48.406;9.984;2023-07-24T14:39:55;21.80;94.60
17994;DHT22;9122;48.406;9.984;2023-07-24T14:42:40;21.80;94.70
17994;DHT22;9122;48.406;9.984;2023-07-24T14:45:25;21.80;94.80
17994;DHT22;9122;48.406;9.984;2023-07-24T14:48:09;21.80;94.80
17994;DHT22;9122;48.406;9.984;2023-07-24T14:50:57;21.80;94.70
17994;DHT22;9122;48.406;9.984;2023-07-24T14:53:41;21.80;94.40
17994;DHT22;9122;48.406;9.984;2023-07-24T14:56:25;21.80;94.50
17994;DHT22;9122;48.406;9.984;2023-07-24T14:59:10;21.80;94.30
17994;DHT22;9122;48.406;9.984;2023-07-24T15:01:54;21.80;94.20
17994;DHT22;9122;48.406;9.984;2023-07-24T15:04:38;21.80;94.10
17994;DHT22;9122;48.406;9.984;2023-07-24T15:07:22;21.80;94.20
17994;DHT22;9122;48.406;9.984;2023-07-24T15:10:07;21.70;94.10
17994;DHT22;9122;48.406;9.984;2023-07-24T15:12:51;21.80;94.20
17994;DHT22;9122;48.406;9.984;2023-07-24T15:15:36;21.70;94.20
17994;DHT22;9122;48.406;9.984;2023-07-24T15:18:20;21.70;94.20
17994;DHT22;9122;48.406;9.984;2023-07-24T15:21:05;21.70;94.10
17994;DHT22;9122;48.406;9.984;2023-07-24T15:23:49;21.60;94.20
17994;DHT22;9122;48.406;9.984;2023-07-24T15:26:36;21.60;94.40
17994;DHT22;9122;48.406;9.984;2023-07-24T15:29:21;21.60;94.40
17994;DHT22;9122;48.406;9.984;2023-07-24T15:32:06;21.60;94.40
17994;DHT22;9122;48.406;9.984;2023-07-24T15:34:50;21.60;94.60
17994;DHT22;9122;48.406;9.984;2023-07-24T15:37:34;21.50;94.80
17994;DHT22;9122;48.406;9.984;2023-07-24T15:40:19;21.50;95.10
17994;DHT22;9122;48.406;9.984;2023-07-24T15:43:03;21.60;95.20
17994;DHT22;9122;48.406;9.984;2023-07-24T15:45:47;21.60;95.30
17994;DHT22;9122;48.406;9.984;2023-07-24T15:48:34;21.50;95.40
17994;DHT22;9122;48.406;9.984;2023-07-24T15:51:18;21.50;95.50
17994;DHT22;9122;48.406;9.984;2023-07-24T15:54:03;21.50;95.50
17994;DHT22;9122;48.406;9.984;2023-07-24T15:56:51;21.50;95.40
17994;DHT22;9122;48.406;9.984;2023-07-24T15:59:35;21.50;95.50
17994;DHT22;9122;48.406;9.984;2023-07-24T16:02:19;21.50;95.40
17994;DHT22;9122;48.406;9.984;2023-07-24T16:05:05;21.50;95.40
17994;DHT22;9122;48.406;9.984;2023-07-24T16:07:49;21.50;95.40
17994;DHT22;9122;48.406;9.984;2023-07-24T16:10:34;21.50;95.40
17994;DHT22;9122;48.406;9.984;2023-07-24T16:13:19;21.50;95.50
17994;DHT22;9122;48.406;9.984;2023-07-24T16:16:03;21.60;95.40
17994;DHT22;9122;48.406;9.984;2023-07-24T16:19:18;21.60;95.50
17994;DHT22;9122;48.406;9.984;2023-07-24T16:22:03;21.60;95.30
17994;DHT22;9122;48.406;9.984;2023-07-24T16:24:47;21.70;95.10
17994;DHT22;9122;48.406;9.984;2023-07-24T16:27:31;21.70;94.80
17994;DHT22;9122;48.406;9.984;2023-07-24T16:30:16;21.70;94.80
17994;DHT22;9122;48.406;9.984;2023-07-24T16:33:01;21.70;95.00
17994;DHT22;9122;48.406;9.984;2023-07-24T16:35:45;21.70;94.80
17994;DHT22;9122;48.406;9.984;2023-07-24T16:38:29;21.70;94.50
17994;DHT22;9122;48.406;9.984;2023-07-24T16:41:14;21.70;94.50
17994;DHT22;9122;48.406;9.984;2023-07-24T16:43:58;21.70;94.30
17994;DHT22;9122;48.406;9.984;2023-07-24T16:46:43;21.70;94.30
17994;DHT22;9122;48.406;9.984;2023-07-24T16:49:27;21.70;94.40
17994;DHT22;9122;48.406;9.984;2023-07-24T16:52:11;21.70;94.40
17994;DHT22;9122;48.406;9.984;2023-07-24T16:54:56;21.70;94.20
17994;DHT22;9122;48.406;9.984;2023-07-24T16:57:41;21.70;94.20
17994;DHT22;9122;48.406;9.984;2023-07-24T17:00:27;21.70;94.20
17994;DHT22;9122;48.406;9.984;2023-07-24T17:03:11;21.70;94.70
17994;DHT22;9122;48.406;9.984;2023-07-24T17:05:56;21.70;94.50
17994;DHT22;9122;48.406;9.984;2023-07-24T17:08:40;21.70;94.60
17994;DHT22;9122;48.406;9.984;2023-07-24T17:11:25;21.60;94.50
17994;DHT22;9122;48.406;9.984;2023-07-24T17:14:10;21.70;94.70
17994;DHT22;9122;48.406;9.984;2023-07-24T17:16:55;21.60;95.20
17994;DHT22;9122;48.406;9.984;2023-07-24T17:19:39;21.70;94.90
17994;DHT22;9122;48.406;9.984;2023-07-24T17:22:23;21.60;95.00
17994;DHT22;9122;48.406;9.984;2023-07-24T17:25:08;21.60;95.10
17994;DHT22;9122;48.406;9.984;2023-07-24T17:27:53;21.60;95.30
17994;DHT22;9122;48.406;9.984;2023-07-24T17:30:39;21.70;95.50
17994;DHT22;9122;48.406;9.984;2023-07-24T17:33:23;21.60;95.50
17994;DHT22;9122;48.406;9.984;2023-07-24T17:36:07;21.70;95.50
17994;DHT22;9122;48.406;9.984;2023-07-24T17:38:51;21.60;95.40
17994;DHT22;9122;48.406;9.984;2023-07-24T17:41:36;21.60;95.50
17994;DHT22;9122;48.406;9.984;2023-07-24T17:44:20;21.60;95.60
17994;DHT22;9122;48.406;9.984;2023-07-24T17:47:04;21.60;95.70
17994;DHT22;9122;48.406;9.984;2023-07-24T17:49:48;21.60;95.70
17994;DHT22;9122;48.406;9.984;2023-07-24T17:52:33;21.60;95.80
17994;DHT22;9122;48.406;9.984;2023-07-24T17:55:17;21.60;95.80
17994;DHT22;9122;48.406;9.984;2023-07-24T17:58:01;21.60;95.90
17994;DHT22;9122;48.406;9.984;2023-07-24T18:00:45;21.60;96.00
17994;DHT22;9122;48.406;9.984;2023-07-24T18:03:30;21.60;96.00
17994;DHT22;9122;48.406;9.984;2023-07-24T18:06:15;21.60;96.00
17994;DHT22;9122;48.406;9.984;2023-07-24T18:08:59;21.60;96.10
17994;DHT22;9122;48.406;9.984;2023-07-24T18:11:43;21.60;96.10
17994;DHT22;9122;48.406;9.984;2023-07-24T18:14:28;21.70;96.10
17994;DHT22;9122;48.406;9.984;2023-07-24T18:17:12;21.60;96.00
17994;DHT22;9122;48.406;9.984;2023-07-24T18:19:57;21.60;96.00
17994;DHT22;9122;48.406;9.984;2023-07-24T18:22:41;21.60;96.00
17994;DHT22;9122;48.406;9.984;2023-07-24T18:25:26;21.60;96.00
17994;DHT22;9122;48.406;9.984;2023-07-24T18:28:11;21.60;96.00
17994;DHT22;9122;48.406;9.984;2023-07-24T18:30:56;21.60;96.00
17994;DHT22;9122;48.406;9.984;2023-07-24T18:33:40;21.50;96.00
17994;DHT22;9122;48.406;9.984;2023-07-24T18:36:24;21.50;96.10
17994;DHT22;9122;48.406;9.984;2023-07-24T18:39:09;21.50;96.10
17994;DHT22;9122;48.406;9.984;2023-07-24T18:41:53;21.50;96.20
17994;DHT22;9122;48.406;9.984;2023-07-24T18:44:37;21.50;96.20
17994;DHT22;9122;48.406;9.984;2023-07-24T18:47:21;21.50;96.20
17994;DHT22;9122;48.406;9.984;2023-07-24T18:50:06;21.50;96.30
17994;DHT22;9122;48.406;9.984;2023-07-24T18:52:50;21.50;96.30
17994;DHT22;9122;48.406;9.984;2023-07-24T18:55:35;21.50;96.40
17994;DHT22;9122;48.406;9.984;2023-07-24T18:58:19;21.40;96.40
17994;DHT22;9122;48.406;9.984;2023-07-24T19:01:04;21.40;96.30
17994;DHT22;9122;48.406;9.984;2023-07-24T19:03:48;21.40;96.30
17994;DHT22;9122;48.406;9.984;2023-07-24T19:06:32;21.40;96.10
17994;DHT22;9122;48.406;9.984;2023-07-24T19:09:18;21.40;96.10
17994;DHT22;9122;48.406;9.984;2023-07-24T19:12:02;21.40;96.20
17994;DHT22;9122;48.406;9.984;2023-07-24T19:14:46;21.30;96.10
17994;DHT22;9122;48.406;9.984;2023-07-24T19:17:30;21.30;96.00
17994;DHT22;9122;48.406;9.984;2023-07-24T19:20:15;21.30;96.00
17994;DHT22;9122;48.406;9.984;2023-07-24T19:23:00;21.30;96.10
17994;DHT22;9122;48.406;9.984;2023-07-24T19:25:44;21.30;96.00
17994;DHT22;9122;48.406;9.984;2023-07-24T19:28:29;21.30;95.70
17994;DHT22;9122;48.406;9.984;2023-07-24T19:39:02;21.30;95.90
17994;DHT22;9122;48.406;9.984;2023-07-24T19:41:49;21.30;95.90
17994;DHT22;9122;48.406;9.984;2023-07-24T19:44:36;21.20;95.90
17994;DHT22;9122;48.406;9.984;2023-07-24T19:47:21;21.20;95.90
17994;DHT22;9122;48.406;9.984;2023-07-24T19:50:05;21.20;96.00
17994;DHT22;9122;48.406;9.984;2023-07-24T20:00:43;21.20;96.10
17994;DHT22;9122;48.406;9.984;2023-07-24T20:03:30;21.10;96.10
17994;DHT22;9122;48.406;9.984;2023-07-24T20:06:15;21.10;96.10
17994;DHT22;9122;48.406;9.984;2023-07-24T20:08:59;21.10;96.20
17994;DHT22;9122;48.406;9.984;2023-07-24T20:11:44;21.10;96.20
17994;DHT22;9122;48.406;9.984;2023-07-24T20:14:29;21.10;96.40
17994;DHT22;9122;48.406;9.984;2023-07-24T20:17:13;21.10;96.20
17994;DHT22;9122;48.406;9.984;2023-07-24T20:19:58;21.00;96.10
17994;DHT22;9122;48.406;9.984;2023-07-24T20:22:43;21.00;96.00
17994;DHT22;9122;48.406;9.984;2023-07-24T20:25:27;21.00;96.00
17994;DHT22;9122;48.406;9.984;2023-07-24T20:28:12;21.00;96.00
17994;DHT22;9122;48.406;9.984;2023-07-24T20:30:56;21.00;95.90
17994;DHT22;9122;48.406;9.984;2023-07-24T20:33:41;21.00;96.00
17994;DHT22;9122;48.406;9.984;2023-07-24T20:36:25;20.90;96.00
17994;DHT22;9122;48.406;9.984;2023-07-24T20:39:09;20.90;96.00
17994;DHT22;9122;48.406;9.984;2023-07-24T20:42:02;20.90;96.00
17994;DHT22;9122;48.406;9.984;2023-07-24T20:44:51;20.90;96.10
17994;DHT22;9122;48.406;9.984;2023-07-24T20:47:36;20.90;96.20
17994;DHT22;9122;48.406;9.984;2023-07-24T20:50:20;20.90;96.20
17994;DHT22;9122;48.406;9.984;2023-07-24T20:53:05;20.90;96.20
17994;DHT22;9122;48.406;9.984;2023-07-24T20:55:49;20.80;96.20
17994;DHT22;9122;48.406;9.984;2023-07-24T20:58:33;20.80;96.20
17994;DHT22;9122;48.406;9.984;2023-07-24T21:01:18;20.80;96.20
17994;DHT22;9122;48.406;9.984;2023-07-24T21:04:05;20.80;96.20
17994;DHT22;9122;48.406;9.984;2023-07-24T21:06:49;20.80;96.20
17994;DHT22;9122;48.406;9.984;2023-07-24T21:09:34;20.80;96.10
17994;DHT22;9122;48.406;9.984;2023-07-24T21:12:18;20.80;96.00
17994;DHT22;9122;48.406;9.984;2023-07-24T21:15:03;20.70;95.90
17994;DHT22;9122;48.406;9.984;2023-07-24T21:17:48;20.70;95.80
17994;DHT22;9122;48.406;9.984;2023-07-24T21:20:32;20.70;95.60
17994;DHT22;9122;48.406;9.984;2023-07-24T21:23:16;20.70;95.60
17994;DHT22;9122;48.406;9.984;2023-07-24T21:26:00;20.70;95.40
17994;DHT22;9122;48.406;9.984;2023-07-24T21:28:45;20.60;95.30
17994;DHT22;9122;48.406;9.984;2023-07-24T21:31:30;20.60;95.20
17994;DHT22;9122;48.406;9.984;2023-07-24T21:34:14;20.60;95.10
17994;DHT22;9122;48.406;9.984;2023-07-24T21:37:00;20.50;95.00
17994;DHT22;9122;48.406;9.984;2023-07-24T21:39:44;20.50;95.00
17994;DHT22;9122;48.406;9.984;2023-07-24T21:42:29;20.50;94.90
17994;DHT22;9122;48.406;9.984;2023-07-24T21:45:13;20.50;94.80
17994;DHT22;9122;48.406;9.984;2023-07-24T21:47:57;20.50;94.80
17994;DHT22;9122;48.406;9.984;2023-07-24T21:50:48;20.40;94.60
17994;DHT22;9122;48.406;9.984;2023-07-24T21:53:33;20.40;94.60
17994;DHT22;9122;48.406;9.984;2023-07-24T21:56:17;20.30;94.50
17994;DHT22;9122;48.406;9.984;2023-07-24T21:59:01;20.30;94.50
17994;DHT22;9122;48.406;9.984;2023-07-24T22:01:46;20.30;94.60
17994;DHT22;9122;48.406;9.984;2023-07-24T22:04:30;20.30;94.50
17994;DHT22;9122;48.406;9.984;2023-07-24T22:07:14;20.20;94.50
17994;DHT22;9122;48.406;9.984;2023-07-24T22:09:59;20.20;94.50
17994;DHT22;9122;48.406;9.984;2023-07-24T22:12:44;20.20;94.50
17994;DHT22;9122;48.406;9.984;2023-07-24T22:15:28;20.20;94.40
17994;DHT22;9122;48.406;9.984;2023-07-24T22:18:12;20.20;94.40
17994;DHT22;9122;48.406;9.984;2023-07-24T22:20:57;20.20;94.40
17994;DHT22;9122;48.406;9.984;2023-07-24T22:23:41;20.10;94.40
17994;DHT22;9122;48.406;9.984;2023-07-24T22:26:26;20.10;94.70
17994;DHT22;9122;48.406;9.984;2023-07-24T22:29:10;20.10;94.40
17994;DHT22;9122;48.406;9.984;2023-07-24T22:31:54;20.10;94.50
17994;DHT22;9122;48.406;9.984;2023-07-24T22:34:39;20.10;94.40
17994;DHT22;9122;48.406;9.984;2023-07-24T22:37:25;20.10;94.50
17994;DHT22;9122;48.406;9.984;2023-07-24T22:40:10;20.10;94.60
17994;DHT22;9122;48.406;9.984;2023-07-24T22:42:55;20.00;94.50
17994;DHT22;9122;48.406;9.984;2023-07-24T22:45:40;20.00;94.60
17994;DHT22;9122;48.406;9.984;2023-07-24T22:48:24;20.00;94.70
17994;DHT22;9122;48.406;9.984;2023-07-24T22:51:08;20.00;94.80
17994;DHT22;9122;48.406;9.984;2023-07-24T22:53:55;19.90;95.00
17994;DHT22;9122;48.406;9.984;2023-07-24T22:56:40;19.90;95.50
17994;DHT22;9122;48.406;9.984;2023-07-24T22:59:26;19.90;95.60
17994;DHT22;9122;48.406;9.984;2023-07-24T23:02:11;19.90;95.70
17994;DHT22;9122;48.406;9.984;2023-07-24T23:04:55;19.90;95.70
17994;DHT22;9122;48.406;9.984;2023-07-24T23:07:40;19.80;95.70
17994;DHT22;9122;48.406;9.984;2023-07-24T23:10:24;19.80;95.70
17994;DHT22;9122;48.406;9.984;2023-07-24T23:13:09;19.80;95.70
17994;DHT22;9122;48.406;9.984;2023-07-24T23:15:53;19.80;95.60
17994;DHT22;9122;48.406;9.984;2023-07-24T23:18:37;19.80;95.60
17994;DHT22;9122;48.406;9.984;2023-07-24T23:21:21;19.80;95.50
17994;DHT22;9122;48.406;9.984;2023-07-24T23:24:05;19.70;95.50
17994;DHT22;9122;48.406;9.984;2023-07-24T23:26:50;19.70;95.40
17994;DHT22;9122;48.406;9.984;2023-07-24T23:29:35;19.70;95.40
17994;DHT22;9122;48.406;9.984;2023-07-24T23:32:19;19.70;95.40
17994;DHT22;9122;48.406;9.984;2023-07-24T23:35:03;19.70;95.50
17994;DHT22;9122;48.406;9.984;2023-07-24T23:37:48;19.70;95.50
17994;DHT22;9122;48.406;9.984;2023-07-24T23:40:32;19.70;95.50
17994;DHT22;9122;48.406;9.984;2023-07-24T23:43:16;19.60;95.50
17994;DHT22;9122;48.406;9.984;2023-07-24T23:46:00;19.60;95.40
17994;DHT22;9122;48.406;9.984;2023-07-24T23:48:51;19.60;95.30
17994;DHT22;9122;48.406;9.984;2023-07-24T23:51:36;19.60;95.70
17994;DHT22;9122;48.406;9.984;2023-07-24T23:54:20;19.60;95.40
17994;DHT22;9122;48.406;9.984;2023-07-24T23:57:04;19.50;95.30
17994;DHT22;9122;48.406;9.984;2023-07-24T23:59:49;19.50;95.30
